createdAt,value
2023-04-29T00:01:24.676Z,14.10
2023-04-29T00:03:53.408Z,14.10
2023-04-29T00:06:22.581Z,14.10
2023-04-29T00:08:53.272Z,13.90
2023-04-29T00:11:21.746Z,13.90
2023-04-29T00:13:50.037Z,13.80
2023-04-29T00:16:18.685Z,13.80
2023-04-29T00:18:47.284Z,13.70
2023-04-29T00:21:15.900Z,13.70
2023-04-29T00:23:44.093Z,13.60
2023-04-29T00:26:14.064Z,13.60
2023-04-29T00:28:46.106Z,13.60
2023-04-29T00:31:14.884Z,13.50
2023-04-29T00:33:43.725Z,13.50
2023-04-29T00:36:12.024Z,13.50
2023-04-29T00:38:40.296Z,13.40
2023-04-29T00:41:08.513Z,13.40
2023-04-29T00:43:38.177Z,13.40
2023-04-29T00:46:06.626Z,13.40
2023-04-29T00:48:34.975Z,13.20
2023-04-29T00:51:04.043Z,13.40
2023-04-29T00:53:32.897Z,13.40
2023-04-29T00:56:02.752Z,13.40
2023-04-29T00:58:33.658Z,13.40
2023-04-29T01:01:04.789Z,13.50
2023-04-29T01:03:33.539Z,13.50
2023-04-29T01:06:14.397Z,13.50
2023-04-29T01:08:53.559Z,13.50
2023-04-29T01:11:24.756Z,13.50
2023-04-29T01:14:00.770Z,13.50
2023-04-29T01:16:38.349Z,13.50
2023-04-29T01:19:21.356Z,13.40
2023-04-29T01:21:50.103Z,13.40
2023-04-29T01:24:19.863Z,13.40
2023-04-29T01:26:58.698Z,13.50
2023-04-29T01:29:47.488Z,13.50
2023-04-29T01:32:19.940Z,13.50
2023-04-29T01:34:59.594Z,13.50
2023-04-29T01:37:40.362Z,13.50
2023-04-29T01:40:17.301Z,13.30
2023-04-29T01:43:04.367Z,13.30
2023-04-29T01:45:36.573Z,13.30
2023-04-29T01:48:06.304Z,13.20
2023-04-29T01:50:34.656Z,13.20
2023-04-29T01:53:17.563Z,13.20
2023-04-29T01:55:49.058Z,13.20
2023-04-29T01:58:43.321Z,13.20
2023-04-29T02:01:30.282Z,13.20
2023-04-29T02:03:59.461Z,13.20
2023-04-29T02:06:28.079Z,13.20
2023-04-29T02:09:00.957Z,13.20
2023-04-29T02:11:30.695Z,13.20
2023-04-29T02:13:59.671Z,13.20
2023-04-29T02:16:29.062Z,13.20
2023-04-29T02:19:00.516Z,13.20
2023-04-29T02:21:28.850Z,13.10
2023-04-29T02:23:57.180Z,13.10
2023-04-29T02:26:26.594Z,13.10
2023-04-29T02:28:58.646Z,13.10
2023-04-29T02:31:29.026Z,13.00
2023-04-29T02:33:57.455Z,13.00
2023-04-29T02:36:25.915Z,13.00
2023-04-29T02:38:55.901Z,13.00
2023-04-29T02:41:25.972Z,13.00
2023-04-29T02:43:54.303Z,13.00
2023-04-29T02:46:24.209Z,13.00
2023-04-29T02:48:53.116Z,13.10
2023-04-29T02:51:21.428Z,13.00
2023-04-29T02:53:50.472Z,13.10
2023-04-29T02:56:18.745Z,12.90
2023-04-29T02:58:47.154Z,12.90
2023-04-29T03:01:15.465Z,12.90
2023-04-29T03:03:45.338Z,12.90
2023-04-29T03:06:13.859Z,12.90
2023-04-29T03:08:42.117Z,12.90
2023-04-29T03:11:10.442Z,12.90
2023-04-29T03:13:39.837Z,13.00
2023-04-29T03:16:09.971Z,12.90
2023-04-29T03:18:38.669Z,12.90
2023-04-29T03:21:08.383Z,12.70
2023-04-29T03:23:36.675Z,12.80
2023-04-29T03:26:06.381Z,12.80
2023-04-29T03:28:34.702Z,12.80
2023-04-29T03:31:03.176Z,12.70
2023-04-29T03:33:31.613Z,12.70
2023-04-29T03:35:59.993Z,12.70
2023-04-29T03:38:52.479Z,12.70
2023-04-29T03:41:21.282Z,12.70
2023-04-29T03:43:49.561Z,12.70
2023-04-29T03:46:17.859Z,12.70
2023-04-29T03:48:46.687Z,12.70
2023-04-29T03:51:15.307Z,12.60
2023-04-29T03:53:43.764Z,12.70
2023-04-29T03:56:13.521Z,12.70
2023-04-29T03:58:41.853Z,12.70
2023-04-29T04:01:10.782Z,12.60
2023-04-29T04:03:47.366Z,12.60
2023-04-29T04:06:15.965Z,12.60
2023-04-29T04:08:44.615Z,12.50
2023-04-29T04:11:21.344Z,12.50
2023-04-29T04:13:55.995Z,12.50
2023-04-29T04:16:25.722Z,12.50
2023-04-29T04:18:54.260Z,12.50
2023-04-29T04:21:22.518Z,12.60
2023-04-29T04:23:59.574Z,12.60
2023-04-29T04:26:31.431Z,12.50
2023-04-29T04:29:08.403Z,12.50
2023-04-29T04:31:47.122Z,12.50
2023-04-29T04:34:17.098Z,12.50
2023-04-29T04:36:47.537Z,12.50
2023-04-29T04:39:15.962Z,12.40
2023-04-29T04:41:45.613Z,12.40
2023-04-29T04:44:14.483Z,12.40
2023-04-29T04:46:52.395Z,12.40
2023-04-29T04:49:37.620Z,12.40
2023-04-29T04:52:06.560Z,12.40
2023-04-29T04:54:35.526Z,12.40
2023-04-29T04:57:18.646Z,12.50
2023-04-29T04:59:47.002Z,12.50
2023-04-29T05:02:15.368Z,12.50
2023-04-29T05:04:43.936Z,12.50
2023-04-29T05:07:14.015Z,12.50
2023-04-29T05:10:01.720Z,12.50
2023-04-29T05:12:32.522Z,12.50
2023-04-29T05:15:02.395Z,12.50
2023-04-29T05:17:31.769Z,12.40
2023-04-29T05:20:00.959Z,12.40
2023-04-29T05:22:30.617Z,12.40
2023-04-29T05:25:02.863Z,12.40
2023-04-29T05:27:34.612Z,12.40
2023-04-29T05:30:05.413Z,12.40
2023-04-29T05:32:35.196Z,12.50
2023-04-29T05:35:06.641Z,12.50
2023-04-29T05:37:36.702Z,12.50
2023-04-29T05:40:14.399Z,12.50
2023-04-29T05:42:45.274Z,12.50
2023-04-29T05:45:13.954Z,12.50
2023-04-29T05:47:42.463Z,12.50
2023-04-29T05:50:11.552Z,12.40
2023-04-29T05:52:40.965Z,12.50
2023-04-29T05:55:11.262Z,12.50
2023-04-29T05:57:40.261Z,12.50
2023-04-29T06:00:12.278Z,12.50
2023-04-29T06:02:57.573Z,12.50
2023-04-29T06:05:28.962Z,12.60
2023-04-29T06:08:16.489Z,12.60
2023-04-29T06:10:52.278Z,12.70
2023-04-29T06:13:20.953Z,12.60
2023-04-29T06:15:51.889Z,12.70
2023-04-29T06:18:21.030Z,12.60
2023-04-29T06:20:49.350Z,12.60
2023-04-29T06:23:17.730Z,12.60
2023-04-29T06:25:46.818Z,12.60
2023-04-29T06:28:15.849Z,12.60
2023-04-29T06:30:45.815Z,12.60
2023-04-29T06:33:16.300Z,12.60
2023-04-29T06:35:44.768Z,12.60
2023-04-29T06:38:36.380Z,12.60
2023-04-29T06:41:23.747Z,12.50
2023-04-29T06:43:52.059Z,12.60
2023-04-29T06:46:40.128Z,12.50
2023-04-29T06:49:16.192Z,12.60
2023-04-29T06:51:44.602Z,12.50
2023-04-29T06:54:12.926Z,12.50
2023-04-29T06:56:41.710Z,12.50
2023-04-29T06:59:12.189Z,12.50
2023-04-29T07:01:42.625Z,12.40
2023-04-29T07:04:13.112Z,12.40
2023-04-29T07:06:46.769Z,12.40
2023-04-29T07:09:15.350Z,12.40
2023-04-29T07:11:43.807Z,12.40
2023-04-29T07:14:12.488Z,12.10
2023-04-29T07:16:40.859Z,12.40
2023-04-29T07:19:11.870Z,12.40
2023-04-29T07:21:40.257Z,12.40
2023-04-29T07:24:09.993Z,12.40
2023-04-29T07:26:38.231Z,12.40
2023-04-29T07:29:06.632Z,12.40
2023-04-29T07:31:37.406Z,12.40
2023-04-29T07:34:06.713Z,12.40
2023-04-29T07:36:35.563Z,12.50
2023-04-29T07:39:04.988Z,12.50
2023-04-29T07:41:35.075Z,12.50
2023-04-29T07:44:03.478Z,12.50
2023-04-29T07:46:32.096Z,12.50
2023-04-29T07:49:00.414Z,12.60
2023-04-29T07:51:29.802Z,12.60
2023-04-29T07:53:58.154Z,12.60
2023-04-29T07:56:26.466Z,12.60
2023-04-29T07:58:56.276Z,12.60
2023-04-29T08:01:24.758Z,12.60
2023-04-29T08:03:53.508Z,12.60
2023-04-29T08:06:24.195Z,12.60
2023-04-29T08:08:52.794Z,12.50
2023-04-29T08:11:22.388Z,12.60
2023-04-29T08:13:50.684Z,12.60
2023-04-29T08:16:21.742Z,12.70
2023-04-29T08:18:50.334Z,12.70
2023-04-29T08:21:18.886Z,12.70
2023-04-29T08:23:47.223Z,12.70
2023-04-29T08:26:15.671Z,12.70
2023-04-29T08:28:43.998Z,12.70
2023-04-29T08:31:18.415Z,12.70
2023-04-29T08:33:48.465Z,12.70
2023-04-29T08:36:16.793Z,12.70
2023-04-29T08:38:45.168Z,12.70
2023-04-29T08:41:15.406Z,12.70
2023-04-29T08:43:43.793Z,12.70
2023-04-29T08:46:12.903Z,12.70
2023-04-29T08:48:44.882Z,12.70
2023-04-29T08:51:15.025Z,12.80
2023-04-29T08:53:43.344Z,12.70
2023-04-29T08:56:17.567Z,12.80
2023-04-29T08:58:47.683Z,12.70
2023-04-29T09:01:16.343Z,12.80
2023-04-29T09:03:49.016Z,12.80
2023-04-29T09:06:19.537Z,12.80
2023-04-29T09:08:48.655Z,12.80
2023-04-29T09:11:17.439Z,12.80
2023-04-29T09:13:45.718Z,12.80
2023-04-29T09:16:14.254Z,12.80
2023-04-29T09:18:50.511Z,12.80
2023-04-29T09:21:22.596Z,12.80
2023-04-29T09:23:53.273Z,12.80
2023-04-29T09:26:22.571Z,12.90
2023-04-29T09:29:08.550Z,12.90
2023-04-29T09:31:39.224Z,12.90
2023-04-29T09:34:07.757Z,12.90
2023-04-29T09:36:46.177Z,12.90
2023-04-29T09:39:16.621Z,12.90
2023-04-29T09:42:00.332Z,12.90
2023-04-29T09:44:32.978Z,12.90
2023-04-29T09:47:04.027Z,13.00
2023-04-29T09:49:35.716Z,13.00
2023-04-29T09:52:06.917Z,13.00
2023-04-29T09:54:36.857Z,13.00
2023-04-29T09:57:07.090Z,13.00
2023-04-29T09:59:37.674Z,13.10
2023-04-29T10:02:11.775Z,13.10
2023-04-29T10:04:42.227Z,13.10
2023-04-29T10:07:16.685Z,13.10
2023-04-29T10:09:47.373Z,13.10
2023-04-29T10:12:18.711Z,13.20
2023-04-29T10:14:51.406Z,13.20
2023-04-29T10:17:25.611Z,13.20
2023-04-29T10:19:59.406Z,13.20
2023-04-29T10:22:36.672Z,13.20
2023-04-29T10:25:08.832Z,13.30
2023-04-29T10:27:38.579Z,13.20
2023-04-29T10:30:11.361Z,13.30
2023-04-29T10:32:51.075Z,13.20
2023-04-29T10:35:23.665Z,13.30
2023-04-29T10:37:54.691Z,13.30
2023-04-29T10:40:29.126Z,13.30
2023-04-29T10:42:57.912Z,13.30
2023-04-29T10:45:28.560Z,13.30
2023-04-29T10:48:16.554Z,13.30
2023-04-29T10:51:04.434Z,13.40
2023-04-29T10:53:34.430Z,13.40
2023-04-29T10:56:09.334Z,13.40
2023-04-29T10:58:47.757Z,13.40
2023-04-29T11:01:17.754Z,13.40
2023-04-29T11:03:59.424Z,13.50
2023-04-29T11:06:41.073Z,13.50
2023-04-29T11:09:14.475Z,13.50
2023-04-29T11:11:52.140Z,13.40
2023-04-29T11:14:25.475Z,13.50
2023-04-29T11:16:57.377Z,13.50
2023-04-29T11:19:28.629Z,13.40
2023-04-29T11:22:17.789Z,13.40
2023-04-29T11:24:56.215Z,13.50
2023-04-29T11:27:26.524Z,13.50
2023-04-29T11:29:58.669Z,13.50
2023-04-29T11:32:28.143Z,13.50
2023-04-29T11:34:56.792Z,13.60
2023-04-29T11:37:28.670Z,13.60
2023-04-29T11:40:02.355Z,13.60
2023-04-29T11:42:30.953Z,13.60
2023-04-29T11:45:00.558Z,13.60
2023-04-29T11:47:30.494Z,13.70
2023-04-29T11:50:06.005Z,13.60
2023-04-29T11:52:34.713Z,13.70
2023-04-29T11:55:04.875Z,13.70
2023-04-29T11:57:33.304Z,13.70
2023-04-29T12:00:02.311Z,13.70
2023-04-29T12:02:36.755Z,13.70
2023-04-29T12:05:08.729Z,13.80
2023-04-29T12:07:38.280Z,13.80
2023-04-29T12:10:11.743Z,13.80
2023-04-29T12:12:43.806Z,13.80
2023-04-29T12:15:13.843Z,13.90
2023-04-29T12:17:43.567Z,13.90
2023-04-29T12:20:13.049Z,13.90
2023-04-29T12:22:43.826Z,13.90
2023-04-29T12:25:13.884Z,14.00
2023-04-29T12:27:43.440Z,14.00
2023-04-29T12:30:12.792Z,14.00
2023-04-29T12:32:41.656Z,14.00
2023-04-29T12:35:17.613Z,14.10
2023-04-29T12:37:50.561Z,14.10
2023-04-29T12:40:21.061Z,14.10
2023-04-29T12:42:49.704Z,14.20
2023-04-29T12:45:29.035Z,13.90
2023-04-29T12:47:58.732Z,14.00
2023-04-29T12:50:34.388Z,14.30
2023-04-29T12:53:03.782Z,14.40
2023-04-29T12:55:35.532Z,14.40
2023-04-29T12:58:04.162Z,14.40
2023-04-29T13:00:32.866Z,14.40
2023-04-29T13:03:01.491Z,14.40
2023-04-29T13:05:30.018Z,14.50
2023-04-29T13:07:58.508Z,14.50
2023-04-29T13:10:28.362Z,14.50
2023-04-29T13:12:58.191Z,14.50
2023-04-29T13:15:27.040Z,14.50
2023-04-29T13:17:55.826Z,14.50
2023-04-29T13:20:24.205Z,14.50
2023-04-29T13:22:52.617Z,14.50
2023-04-29T13:25:21.218Z,14.50
2023-04-29T13:27:49.823Z,14.50
2023-04-29T13:30:19.554Z,14.60
2023-04-29T13:32:54.889Z,14.50
2023-04-29T13:35:25.119Z,14.60
2023-04-29T13:37:53.680Z,14.50
2023-04-29T13:40:22.244Z,14.50
2023-04-29T13:42:56.938Z,14.50
2023-04-29T13:45:39.042Z,14.50
2023-04-29T13:48:30.196Z,14.50
2023-04-29T13:51:33.299Z,14.50
2023-04-29T13:54:37.378Z,14.50
2023-04-29T14:02:21.397Z,14.50
2023-04-29T14:04:27.225Z,14.50
2023-04-29T14:06:55.915Z,14.50
2023-04-29T14:09:24.353Z,14.50
2023-04-29T14:11:52.671Z,14.60
2023-04-29T14:14:21.221Z,14.60
2023-04-29T14:16:50.918Z,14.50
2023-04-29T14:19:19.241Z,14.50
2023-04-29T14:21:47.671Z,14.60
2023-04-29T14:24:16.093Z,14.50
2023-04-29T14:26:44.434Z,14.50
2023-04-29T14:29:12.798Z,14.50
2023-04-29T14:31:41.778Z,14.60
2023-04-29T14:34:11.938Z,14.60
2023-04-29T14:36:41.096Z,14.60
2023-04-29T14:39:09.815Z,14.60
2023-04-29T14:41:38.145Z,14.60
2023-04-29T14:44:06.707Z,14.60
2023-04-29T14:46:35.226Z,14.60
2023-04-29T14:49:04.245Z,14.60
2023-04-29T14:51:34.026Z,14.60
2023-04-29T14:54:02.433Z,14.60
2023-04-29T14:56:31.263Z,14.60
2023-04-29T14:58:59.521Z,14.60
2023-04-29T15:01:30.526Z,14.60
2023-04-29T15:04:00.314Z,14.60
2023-04-29T15:06:28.806Z,14.60
2023-04-29T15:08:58.475Z,14.60
2023-04-29T15:11:27.086Z,14.60
2023-04-29T15:13:55.417Z,14.60
2023-04-29T15:16:23.880Z,14.60
2023-04-29T15:18:52.252Z,14.70
2023-04-29T15:21:21.097Z,14.70
2023-04-29T15:23:49.327Z,14.70
2023-04-29T15:26:19.264Z,14.70
2023-04-29T15:28:47.567Z,14.70
2023-04-29T15:31:15.982Z,14.80
2023-04-29T15:33:44.592Z,14.80
2023-04-29T15:36:13.385Z,14.80
2023-04-29T15:38:41.849Z,14.80
2023-04-29T15:41:10.109Z,14.80
2023-04-29T15:43:40.270Z,14.80
2023-04-29T15:46:08.693Z,14.80
2023-04-29T15:48:37.112Z,14.80
2023-04-29T15:51:05.598Z,14.90
2023-04-29T15:53:33.914Z,14.90
2023-04-29T15:56:02.503Z,14.90
2023-04-29T15:58:30.845Z,14.90
2023-04-29T16:01:00.506Z,15.00
2023-04-29T16:03:29.003Z,14.90
2023-04-29T16:05:57.495Z,14.90
2023-04-29T16:08:26.042Z,15.00
2023-04-29T16:10:54.474Z,15.00
2023-04-29T16:13:22.759Z,15.00
2023-04-29T16:15:51.144Z,15.00
2023-04-29T16:18:21.038Z,15.00
2023-04-29T16:20:49.499Z,15.00
2023-04-29T16:23:17.736Z,15.00
2023-04-29T16:25:46.040Z,15.00
2023-04-29T16:28:14.545Z,15.00
2023-04-29T16:30:42.944Z,15.00
2023-04-29T16:33:11.282Z,15.00
2023-04-29T16:35:41.013Z,15.00
2023-04-29T16:38:09.371Z,15.00
2023-04-29T16:40:37.751Z,15.10
2023-04-29T16:43:06.444Z,15.10
2023-04-29T16:45:34.969Z,15.20
2023-04-29T16:48:03.588Z,15.20
2023-04-29T16:50:31.988Z,15.30
2023-04-29T16:53:01.648Z,15.30
2023-04-29T16:55:30.252Z,15.20
2023-04-29T16:57:58.678Z,15.30
2023-04-29T17:00:27.443Z,15.30
2023-04-29T17:02:58.464Z,15.30
2023-04-29T17:05:27.583Z,15.30
2023-04-29T17:07:56.352Z,15.30
2023-04-29T17:10:26.034Z,15.20
2023-04-29T17:12:54.791Z,15.20
2023-04-29T17:15:23.126Z,15.20
2023-04-29T17:17:51.761Z,15.20
2023-04-29T17:20:21.764Z,15.10
2023-04-29T17:22:50.098Z,15.20
2023-04-29T17:25:18.410Z,15.10
2023-04-29T17:27:48.071Z,15.10
2023-04-29T17:30:16.471Z,15.10
2023-04-29T17:32:46.598Z,15.10
2023-04-29T17:35:14.924Z,15.10
2023-04-29T17:37:43.269Z,15.10
2023-04-29T17:40:12.072Z,15.10
2023-04-29T17:42:40.562Z,15.10
2023-04-29T17:45:11.798Z,15.10
2023-04-29T17:47:40.345Z,15.10
2023-04-29T17:50:09.515Z,15.10
2023-04-29T17:52:37.791Z,15.10
2023-04-29T17:55:06.882Z,15.10
2023-04-29T17:57:35.203Z,15.10
2023-04-29T18:00:04.818Z,15.10
2023-04-29T18:02:37.362Z,15.10
2023-04-29T18:05:06.402Z,15.10
2023-04-29T18:07:34.731Z,15.10
2023-04-29T18:10:03.129Z,15.10
2023-04-29T18:12:31.752Z,15.00
2023-04-29T18:15:00.851Z,15.10
2023-04-29T18:17:29.208Z,15.10
2023-04-29T18:19:59.058Z,15.10
2023-04-29T18:22:27.423Z,15.10
2023-04-29T18:24:57.932Z,15.10
2023-04-29T18:27:28.519Z,15.40
2023-04-29T18:29:57.346Z,15.10
2023-04-29T18:32:25.844Z,15.10
2023-04-29T18:34:54.701Z,15.10
2023-04-29T18:37:24.505Z,15.10
2023-04-29T18:39:53.451Z,15.20
2023-04-29T18:42:22.354Z,15.20
2023-04-29T18:44:51.402Z,15.10
2023-04-29T18:47:19.936Z,15.10
2023-04-29T18:49:48.529Z,15.10
2023-04-29T18:52:16.928Z,15.10
2023-04-29T18:54:46.602Z,15.10
2023-04-29T18:57:14.995Z,15.10
2023-04-29T18:59:43.519Z,15.10
2023-04-29T19:02:12.315Z,15.10
2023-04-29T19:04:40.945Z,15.10
2023-04-29T19:07:09.310Z,15.10
2023-04-29T19:09:38.192Z,15.10
2023-04-29T19:12:08.610Z,15.10
2023-04-29T19:14:38.519Z,15.10
2023-04-29T19:17:07.088Z,15.10
2023-04-29T19:19:35.585Z,15.10
2023-04-29T19:22:05.393Z,15.10
2023-04-29T19:24:35.487Z,15.10
2023-04-29T19:27:03.926Z,15.10
2023-04-29T19:29:33.947Z,15.10
2023-04-29T19:32:02.446Z,15.10
2023-04-29T19:34:31.397Z,15.10
2023-04-29T19:36:59.945Z,15.10
2023-04-29T19:39:28.919Z,15.10
2023-04-29T19:41:58.322Z,15.10
2023-04-29T19:44:26.722Z,15.10
2023-04-29T19:46:56.594Z,15.10
2023-04-29T19:49:25.075Z,15.10
2023-04-29T19:51:54.143Z,15.10
2023-04-29T19:54:22.657Z,15.10
2023-04-29T19:56:51.312Z,15.10
2023-04-29T19:59:19.742Z,15.10
2023-04-29T20:01:48.745Z,15.10
2023-04-29T20:04:18.868Z,15.10
2023-04-29T20:06:47.387Z,15.00
2023-04-29T20:09:15.734Z,15.00
2023-04-29T20:11:44.187Z,15.00
2023-04-29T20:14:12.604Z,15.00
2023-04-29T20:16:41.045Z,15.00
2023-04-29T20:19:09.543Z,15.00
2023-04-29T20:21:40.465Z,15.00
2023-04-29T20:24:08.938Z,15.00
2023-04-29T20:26:37.327Z,15.00
2023-04-29T20:29:05.834Z,15.00
2023-04-29T20:31:34.470Z,14.90
2023-04-29T20:34:03.083Z,15.00
2023-04-29T20:36:31.937Z,15.00
2023-04-29T20:39:02.255Z,14.90
2023-04-29T20:41:30.619Z,14.90
2023-04-29T20:43:59.868Z,14.90
2023-04-29T20:46:29.255Z,14.90
2023-04-29T20:48:57.658Z,14.90
2023-04-29T20:51:26.830Z,14.90
2023-04-29T20:53:55.451Z,14.90
2023-04-29T20:56:26.166Z,14.90
2023-04-29T20:58:56.536Z,14.80
2023-04-29T21:01:25.002Z,14.90
2023-04-29T21:03:53.451Z,14.90
2023-04-29T21:06:21.866Z,14.90
2023-04-29T21:08:50.230Z,14.80
2023-04-29T21:11:18.745Z,14.80
2023-04-29T21:13:50.310Z,14.80
2023-04-29T21:16:18.853Z,14.80
2023-04-29T21:18:47.368Z,14.80
2023-04-29T21:21:15.863Z,14.80
2023-04-29T21:23:44.710Z,14.80
2023-04-29T21:26:15.057Z,14.80
2023-04-29T21:28:43.591Z,14.80
2023-04-29T21:31:16.358Z,14.80
2023-04-29T21:33:45.697Z,14.80
2023-04-29T21:36:14.307Z,14.70
2023-04-29T21:38:43.142Z,14.80
2023-04-29T21:41:22.578Z,14.70
2023-04-29T21:43:51.705Z,14.70
2023-04-29T21:46:21.903Z,14.70
2023-04-29T21:48:50.297Z,14.70
2023-04-29T21:51:20.105Z,14.70
2023-04-29T21:53:48.475Z,14.70
2023-04-29T21:56:16.805Z,14.70
2023-04-29T21:58:45.662Z,14.70
2023-04-29T22:01:29.374Z,14.70
2023-04-29T22:03:59.214Z,14.70
2023-04-29T22:06:27.744Z,14.60
2023-04-29T22:08:56.421Z,14.60
2023-04-29T22:11:25.053Z,14.60
2023-04-29T22:13:53.580Z,14.60
2023-04-29T22:16:23.541Z,14.60
2023-04-29T22:18:52.185Z,14.60
2023-04-29T22:21:21.764Z,14.60
2023-04-29T22:23:50.277Z,14.50
2023-04-29T22:26:18.579Z,14.50
2023-04-29T22:28:46.989Z,14.50
2023-04-29T22:31:15.270Z,14.50
2023-04-29T22:33:43.461Z,14.50
2023-04-29T22:36:11.725Z,14.50
2023-04-29T22:38:41.438Z,14.40
2023-04-29T22:41:11.757Z,14.40
2023-04-29T22:43:40.111Z,14.40
2023-04-29T22:46:08.573Z,14.40
2023-04-29T22:48:36.952Z,14.40
2023-04-29T22:51:05.399Z,14.40
2023-04-29T22:53:33.772Z,14.30
2023-04-29T22:56:03.457Z,14.30
2023-04-29T22:58:32.670Z,14.30
2023-04-29T23:01:01.543Z,14.30
2023-04-29T23:03:29.896Z,14.30
2023-04-29T23:05:59.535Z,14.30
2023-04-29T23:08:28.258Z,14.30
2023-04-29T23:10:56.556Z,14.20
2023-04-29T23:13:26.254Z,14.20
2023-04-29T23:15:57.337Z,14.20
2023-04-29T23:18:25.638Z,14.20
2023-04-29T23:20:53.939Z,14.20
2023-04-29T23:23:22.233Z,14.20
2023-04-29T23:25:50.775Z,14.20
2023-04-29T23:28:18.998Z,14.20
2023-04-29T23:30:49.339Z,14.20
2023-04-29T23:33:17.799Z,14.10
2023-04-29T23:35:50.703Z,14.10
2023-04-29T23:38:19.859Z,14.10
2023-04-29T23:40:48.762Z,14.10
2023-04-29T23:43:17.278Z,14.10
2023-04-29T23:45:46.286Z,14.10
2023-04-29T23:48:16.789Z,14.10
2023-04-29T23:50:45.012Z,14.10
2023-04-29T23:53:13.462Z,14.10
2023-04-29T23:55:41.769Z,14.00
2023-04-29T23:58:10.091Z,14.00
